Time;durP1;ratioP1;P1;durP2;ratioP2;P2;SDS_P1;SDS_P2;PMS_P1;PMS_P2;Temp;Humidity;BMP_temperature;BMP_pressure;BME280_temperature;BME280_humidity;BME280_pressure;Samples;Min_cycle;Max_cycle;Signal;HPM_P1;HPM_P2
2022/05/10 00:00:55;;;;;;;1.23;1.00;;;20.60;51.00;;;;;;6271258;28;20037;-67
2022/05/10 00:03:57;;;;;;;0.85;0.75;;;20.50;50.90;;;;;;6271968;28;20376;-66
2022/05/10 00:06:58;;;;;;;1.33;0.95;;;20.60;51.00;;;;;;6270179;28;20033;-67
2022/05/10 00:09:59;;;;;;;2.40;0.90;;;20.60;51.00;;;;;;6271382;28;20049;-67
2022/05/10 00:13:00;;;;;;;1.15;0.60;;;20.60;51.00;;;;;;6271705;28;20053;-67
2022/05/10 00:16:03;;;;;;;1.00;0.90;;;20.60;51.00;;;;;;6270224;28;20075;-67
2022/05/10 00:19:04;;;;;;;1.10;0.80;;;20.60;51.00;;;;;;6269951;28;20025;-67
2022/05/10 00:22:04;;;;;;;1.15;0.90;;;20.60;51.00;;;;;;6271354;28;20068;-67
2022/05/10 00:25:08;;;;;;;1.00;0.77;;;20.60;51.00;;;;;;6271284;28;20101;-66
2022/05/10 00:28:09;;;;;;;0.90;0.70;;;20.60;51.00;;;;;;6271067;28;20025;-65
2022/05/10 00:31:11;;;;;;;0.90;0.75;;;20.60;51.00;;;;;;6254617;28;20389;-67
2022/05/10 00:34:16;;;;;;;1.05;0.77;;;20.60;51.00;;;;;;6236810;28;20510;-67
2022/05/10 00:37:19;;;;;;;;;;;20.60;51.00;;;;;;6271285;28;20064;-66
2022/05/10 00:40:23;;;;;;;1.30;0.90;;;20.60;51.10;;;;;;6252523;28;19969;-66
2022/05/10 00:43:36;;;;;;;1.42;1.20;;;20.60;51.10;;;;;;6270998;28;20032;-67
2022/05/10 00:46:43;;;;;;;0.80;0.80;;;20.60;51.10;;;;;;6270652;28;20028;-67
2022/05/10 00:50:11;;;;;;;2.03;0.70;;;20.60;51.10;;;;;;6270494;28;20069;-67
2022/05/10 00:53:31;;;;;;;1.00;0.80;;;20.50;50.90;;;;;;6252524;28;20039;-67
2022/05/10 00:56:44;;;;;;;0.90;0.90;;;20.60;51.10;;;;;;6270388;28;20098;-67
2022/05/10 00:59:55;;;;;;;4.00;1.10;;;20.60;51.10;;;;;;6270056;28;20035;-67
2022/05/10 01:03:19;;;;;;;0.90;0.80;;;20.60;51.10;;;;;;6270186;28;20074;-67
2022/05/10 01:06:36;;;;;;;0.88;0.75;;;20.60;51.10;;;;;;6270084;28;20065;-66
2022/05/10 01:09:55;;;;;;;0.85;0.70;;;20.60;51.10;;;;;;6269679;28;20575;-67
2022/05/10 01:13:16;;;;;;;0.95;0.80;;;20.60;51.10;;;;;;6269729;28;20060;-69
2022/05/10 01:16:21;;;;;;;0.70;0.70;;;20.60;51.10;;;;;;6269745;28;20024;-66
2022/05/10 01:19:22;;;;;;;1.40;1.08;;;20.60;51.10;;;;;;6252238;28;20034;-66
2022/05/10 01:22:39;;;;;;;0.82;0.75;;;20.60;51.10;;;;;;6269736;28;20033;-64
2022/05/10 01:26:01;;;;;;;1.10;0.77;;;20.60;51.10;;;;;;6270119;28;20021;-66
2022/05/10 01:29:25;;;;;;;1.45;0.95;;;20.50;51.00;;;;;;6269731;28;20539;-66
2022/05/10 01:36:21;;;;;;;1.05;0.88;;;20.60;51.10;;;;;;6269980;28;20060;-67
2022/05/10 01:39:25;;;;;;;0.90;0.80;;;20.50;51.00;;;;;;6251395;28;20029;-67
2022/05/10 01:42:33;;;;;;;0.90;0.80;;;20.50;51.00;;;;;;6269373;28;20082;-67
2022/05/10 01:45:43;;;;;;;1.00;0.70;;;20.60;51.10;;;;;;6251081;28;20033;-66
2022/05/10 01:48:47;;;;;;;1.85;1.02;;;20.50;51.10;;;;;;6269241;28;20029;-67
2022/05/10 01:52:05;;;;;;;1.75;1.00;;;20.50;51.00;;;;;;6251000;28;20029;-67
2022/05/10 01:55:05;;;;;;;0.75;0.70;;;20.60;51.20;;;;;;6269158;28;20111;-66
2022/05/10 01:58:16;;;;;;;1.70;1.00;;;20.60;51.10;;;;;;6267647;28;20035;-67
2022/05/10 02:01:25;;;;;;;0.88;0.68;;;20.60;51.20;;;;;;6268556;28;20108;-67
2022/05/10 02:04:32;;;;;;;0.90;0.70;;;20.50;51.10;;;;;;6268714;28;20050;-66
2022/05/10 02:07:34;;;;;;;0.60;0.52;;;20.50;51.10;;;;;;6268875;28;20112;-67
2022/05/10 02:10:40;;;;;;;0.88;0.80;;;20.50;51.10;;;;;;6268319;28;20036;-66
2022/05/10 02:13:52;;;;;;;1.17;0.93;;;20.60;51.20;;;;;;6250813;28;20029;-67
2022/05/10 02:17:04;;;;;;;1.08;0.80;;;20.60;51.20;;;;;;6268453;28;20387;-67
2022/05/10 02:20:43;;;;;;;1.13;1.00;;;20.60;51.20;;;;;;6268438;28;20025;-67
2022/05/10 02:23:57;;;;;;;0.80;0.80;;;20.50;51.10;;;;;;6236206;28;20048;-66
2022/05/10 02:27:09;;;;;;;1.52;0.75;;;20.50;51.10;;;;;;6268238;28;20033;-67
2022/05/10 02:30:12;;;;;;;1.17;0.90;;;20.50;51.10;;;;;;6242205;28;20035;-67
2022/05/10 02:33:15;;;;;;;1.13;0.93;;;20.50;51.10;;;;;;6225719;28;20025;-66
2022/05/10 02:36:17;;;;;;;0.80;0.70;;;20.50;51.10;;;;;;6243622;28;20048;-67
2022/05/10 02:39:18;;;;;;;0.95;0.90;;;20.50;51.10;;;;;;6225931;28;20036;-66
2022/05/10 02:42:21;;;;;;;1.48;0.98;;;20.50;51.10;;;;;;6225869;28;20140;-67
2022/05/10 02:45:22;;;;;;;1.55;1.20;;;20.60;51.20;;;;;;6243425;28;20124;-67
2022/05/10 02:48:29;;;;;;;1.02;0.80;;;20.50;51.10;;;;;;6225677;28;20361;-66
2022/05/10 02:51:30;;;;;;;1.17;0.90;;;20.50;51.10;;;;;;6246225;28;20096;-67
2022/05/10 02:54:30;;;;;;;1.00;0.90;;;20.50;51.20;;;;;;6250033;28;20513;-66
2022/05/10 02:57:32;;;;;;;1.58;1.00;;;20.50;51.10;;;;;;6249459;28;20040;-67
2022/05/10 03:00:33;;;;;;;1.27;1.00;;;20.50;51.10;;;;;;6267805;28;20025;-66
2022/05/10 03:03:35;;;;;;;3.05;1.00;;;20.50;51.10;;;;;;6267844;28;20028;-67
2022/05/10 03:06:37;;;;;;;1.33;1.05;;;20.50;51.10;;;;;;6249912;28;20025;-67
2022/05/10 03:09:37;;;;;;;1.08;0.98;;;20.50;51.10;;;;;;6249448;28;20106;-67
2022/05/10 03:12:38;;;;;;;1.17;1.00;;;20.50;51.20;;;;;;6249583;28;20025;-67
2022/05/10 03:15:39;;;;;;;1.02;0.82;;;20.50;51.10;;;;;;6267653;28;20586;-67
2022/05/10 03:18:39;;;;;;;1.02;0.93;;;20.60;51.20;;;;;;6267690;28;20017;-67
2022/05/10 03:21:40;;;;;;;1.13;0.90;;;20.50;51.10;;;;;;6249351;28;20025;-70
2022/05/10 03:24:41;;;;;;;1.17;1.00;;;20.50;51.20;;;;;;6249690;28;20029;-70
2022/05/10 03:27:41;;;;;;;1.00;0.88;;;20.50;51.20;;;;;;6267487;28;20087;-68
2022/05/10 03:30:42;;;;;;;2.00;1.00;;;20.60;51.20;;;;;;6255100;28;20083;-67
2022/05/10 03:33:43;;;;;;;1.10;0.90;;;20.50;51.10;;;;;;6242554;28;20027;-67
2022/05/10 03:36:44;;;;;;;1.10;0.82;;;20.50;51.10;;;;;;6242673;28;20032;-66
2022/05/10 03:39:45;;;;;;;1.30;1.08;;;20.50;51.90;;;;;;6242611;28;20025;-66
2022/05/10 03:42:48;;;;;;;1.50;1.00;;;20.50;51.20;;;;;;6242597;28;20392;-67
2022/05/10 03:45:49;;;;;;;1.35;1.00;;;20.50;51.10;;;;;;6247907;28;20025;-67
2022/05/10 03:48:50;;;;;;;1.45;1.10;;;20.50;51.20;;;;;;6267924;28;20074;-67
2022/05/10 03:51:50;;;;;;;0.90;0.82;;;20.50;51.20;;;;;;6267244;28;20024;-66
2022/05/10 03:54:51;;;;;;;1.30;0.88;;;20.50;51.20;;;;;;6267127;28;20029;-66
2022/05/10 03:57:52;;;;;;;1.33;1.00;;;20.50;51.20;;;;;;6267132;28;20029;-67
2022/05/10 04:00:53;;;;;;;1.15;1.00;;;20.50;51.20;;;;;;6267055;28;20021;-67
2022/05/10 04:03:53;;;;;;;1.08;0.98;;;20.60;51.30;;;;;;6267351;28;20500;-66
2022/05/10 04:06:54;;;;;;;1.20;1.00;;;20.50;51.20;;;;;;6267049;28;20068;-66
2022/05/10 04:09:55;;;;;;;1.02;0.88;;;20.50;51.20;;;;;;6269512;28;20116;-67
2022/05/10 04:12:55;;;;;;;1.23;1.00;;;20.50;51.20;;;;;;6271451;28;20025;-66
2022/05/10 04:15:56;;;;;;;1.00;0.90;;;20.60;51.30;;;;;;6253324;28;20025;-65
2022/05/10 04:18:57;;;;;;;1.30;0.88;;;20.60;51.30;;;;;;6271363;28;20025;-66
2022/05/10 04:21:58;;;;;;;1.63;1.10;;;20.50;51.90;;;;;;6253262;28;20048;-66
2022/05/10 04:24:58;;;;;;;0.77;0.77;;;20.50;51.20;;;;;;6271414;28;20029;-65
2022/05/10 04:27:59;;;;;;;1.35;1.10;;;20.50;51.20;;;;;;6253198;28;20483;-67
2022/05/10 04:31:00;;;;;;;0.90;0.80;;;20.50;51.20;;;;;;6238344;28;20025;-66
2022/05/10 04:34:00;;;;;;;1.33;1.08;;;20.60;51.30;;;;;;6246118;28;20051;-66
2022/05/10 04:37:01;;;;;;;1.58;1.20;;;20.50;51.20;;;;;;6246098;28;20029;-66
2022/05/10 04:43:22;;;;;;;1.08;0.98;;;20.50;51.20;;;;;;6245996;28;20029;-70
2022/05/10 04:46:23;;;;;;;1.10;1.00;;;20.50;51.20;;;;;;6245851;28;20487;-66
2022/05/10 04:49:23;;;;;;;1.05;0.85;;;20.50;51.20;;;;;;6270670;28;20025;-66
2022/05/10 04:52:24;;;;;;;0.98;0.90;;;20.50;51.20;;;;;;6252682;28;20021;-65
2022/05/10 04:55:24;;;;;;;1.38;1.00;;;20.50;51.20;;;;;;6270413;28;20361;-67
2022/05/10 04:58:25;;;;;;;1.00;0.90;;;20.50;51.20;;;;;;6270607;28;20025;-67
2022/05/10 05:01:30;;;;;;;0.90;0.80;;;20.50;51.20;;;;;;6264980;28;20109;-67
2022/05/10 05:04:31;;;;;;;1.52;0.90;;;20.50;51.20;;;;;;6245749;28;20672;-67
2022/05/10 05:07:31;;;;;;;0.95;0.73;;;20.60;51.30;;;;;;6245387;28;20038;-66
2022/05/10 05:10:32;;;;;;;1.00;0.90;;;20.60;51.30;;;;;;6242508;28;20128;-66
2022/05/10 05:13:33;;;;;;;1.42;1.00;;;20.50;51.20;;;;;;6257649;28;20029;-67
2022/05/10 05:16:34;;;;;;;1.23;1.02;;;20.60;51.30;;;;;;6250698;28;20041;-67
2022/05/10 05:19:35;;;;;;;1.55;1.13;;;20.50;51.30;;;;;;6251301;28;20120;-67
2022/05/10 05:22:35;;;;;;;2.17;1.52;;;20.50;50.40;;;;;;6251199;28;20064;-67
2022/05/10 05:25:37;;;;;;;5.30;1.63;;;20.50;50.10;;;;;;6261647;28;20099;-67
2022/05/10 05:28:39;;;;;;;5.65;1.73;;;20.50;49.70;;;;;;6251282;28;20039;-67
2022/05/10 05:31:40;;;;;;;6.30;2.10;;;20.50;49.10;;;;;;6229743;28;20032;-66
2022/05/10 05:34:41;;;;;;;9.82;2.40;;;20.50;48.90;;;;;;6244888;28;20029;-68
2022/05/10 05:37:41;;;;;;;6.80;2.60;;;20.50;48.20;;;;;;6251832;28;20040;-67
2022/05/10 05:40:42;;;;;;;8.05;2.67;;;20.50;47.50;;;;;;6243868;28;20041;-67
2022/05/10 05:43:43;;;;;;;6.80;2.67;;;20.50;47.80;;;;;;6226532;28;20025;-67
2022/05/10 05:46:43;;;;;;;8.85;2.78;;;20.50;47.20;;;;;;6244130;28;20030;-69
2022/05/10 05:49:44;;;;;;;11.05;2.95;;;20.50;47.30;;;;;;6244644;28;20034;-68
2022/05/10 05:52:46;;;;;;;16.15;3.42;;;20.50;47.00;;;;;;6257321;28;20082;-71
2022/05/10 05:55:48;;;;;;;13.45;3.55;;;20.50;46.60;;;;;;6268698;28;20025;-66
2022/05/10 05:58:49;;;;;;;7.15;2.72;;;20.50;47.10;;;;;;6268710;28;20021;-66
2022/05/10 06:01:50;;;;;;;5.90;2.80;;;20.50;48.00;;;;;;6265181;28;20052;-67
2022/05/10 06:04:51;;;;;;;8.00;2.55;;;20.50;48.30;;;;;;6271243;28;20028;-67
2022/05/10 06:07:52;;;;;;;6.53;2.55;;;20.50;48.60;;;;;;6270828;28;20036;-67
2022/05/10 06:10:54;;;;;;;5.45;2.53;;;20.50;48.70;;;;;;6270455;28;20435;-67
2022/05/10 06:13:55;;;;;;;7.75;2.88;;;20.50;48.80;;;;;;6252324;28;20096;-67
2022/05/10 06:16:57;;;;;;;8.82;2.92;;;20.50;48.90;;;;;;6263416;28;20025;-67
2022/05/10 06:19:58;;;;;;;7.20;2.30;;;20.50;49.00;;;;;;6252332;28;20055;-67
2022/05/10 06:22:58;;;;;;;8.60;2.65;;;20.50;49.20;;;;;;6251880;28;20032;-67
2022/05/10 06:25:59;;;;;;;5.82;2.75;;;20.50;49.30;;;;;;6238879;28;20052;-67
2022/05/10 06:28:59;;;;;;;4.90;2.33;;;20.50;49.30;;;;;;6270025;28;20029;-67
2022/05/10 06:32:00;;;;;;;6.55;2.47;;;20.50;49.50;;;;;;6268648;28;20025;-67
2022/05/10 06:35:01;;;;;;;8.43;2.58;;;20.50;49.50;;;;;;6270306;28;20033;-67
2022/05/10 06:38:16;;;;;;;6.15;2.55;;;20.50;49.60;;;;;;6252574;28;20029;-67
2022/05/10 06:41:17;;;;;;;;;;;20.50;49.60;;;;;;6252600;28;20052;-69
2022/05/10 06:44:19;;;;;;;3.13;1.95;;;20.50;49.60;;;;;;6270243;28;19908;-66
2022/05/10 06:47:19;;;;;;;4.07;2.10;;;20.50;49.80;;;;;;6270271;28;20064;-66
2022/05/10 06:50:22;;;;;;;4.53;2.00;;;20.50;49.80;;;;;;6270479;28;20059;-67
2022/05/10 06:53:25;;;;;;;4.88;2.03;;;20.50;49.90;;;;;;6270467;28;20025;-67
2022/05/10 06:56:26;;;;;;;3.72;2.08;;;20.50;49.90;;;;;;6270449;28;20033;-67
2022/05/10 06:59:26;;;;;;;2.75;1.63;;;20.50;50.00;;;;;;6268986;28;20033;-67
2022/05/10 07:02:28;;;;;;;4.13;1.75;;;20.50;50.00;;;;;;6269744;28;20029;-67
2022/05/10 07:05:29;;;;;;;2.97;1.83;;;20.50;50.00;;;;;;6270213;28;20495;-66
2022/05/10 07:08:30;;;;;;;3.17;1.85;;;20.50;50.00;;;;;;6269871;28;20056;-67
2022/05/10 07:11:31;;;;;;;4.38;1.88;;;20.60;50.10;;;;;;6270199;28;20076;-67
2022/05/10 07:14:32;;;;;;;5.65;1.73;;;20.60;50.20;;;;;;6251797;28;20033;-66
2022/05/10 07:17:33;;;;;;;3.33;1.60;;;20.60;50.30;;;;;;6252225;28;20083;-65
2022/05/10 07:20:33;;;;;;;2.42;1.88;;;20.60;50.20;;;;;;6269581;28;20033;-67
2022/05/10 07:23:34;;;;;;;2.35;1.60;;;20.60;50.30;;;;;;6269992;28;20036;-66
2022/05/10 07:26:34;;;;;;;2.70;1.73;;;20.60;50.30;;;;;;6251877;28;20223;-67
2022/05/10 07:29:35;;;;;;;2.72;1.70;;;20.60;50.30;;;;;;6269675;28;20053;-67
2022/05/10 07:32:36;;;;;;;3.22;1.80;;;20.60;50.30;;;;;;6251790;28;20025;-67
2022/05/10 07:38:56;;;;;;;2.75;1.75;;;20.50;50.30;;;;;;6270247;28;20032;-70
2022/05/10 07:41:59;;;;;;;3.97;1.55;;;20.50;50.40;;;;;;6269236;28;20082;-67
2022/05/10 07:44:59;;;;;;;2.60;1.83;;;20.60;50.40;;;;;;6273960;28;20019;-70
2022/05/10 07:48:00;;;;;;;3.97;1.48;;;20.60;50.40;;;;;;6274162;28;20025;-68
2022/05/10 07:51:02;;;;;;;4.20;2.20;;;20.60;50.40;;;;;;6256461;28;20025;-67
2022/05/10 07:54:03;;;;;;;2.47;1.58;;;20.50;50.40;;;;;;6274037;28;20025;-67
2022/05/10 07:57:04;;;;;;;3.00;1.70;;;20.50;50.40;;;;;;6256553;28;20035;-67
2022/05/10 08:00:08;;;;;;;2.17;1.58;;;20.60;50.50;;;;;;6273890;28;20411;-64
2022/05/10 08:03:15;;;;;;;3.35;1.80;;;20.60;50.50;;;;;;6256015;28;20060;-66
2022/05/10 08:06:16;;;;;;;3.20;1.88;;;20.60;51.20;;;;;;6273718;28;20017;-67
2022/05/10 08:09:17;;;;;;;2.30;1.55;;;20.50;50.40;;;;;;6266424;28;20045;-70
2022/05/10 08:12:18;;;;;;;3.33;1.60;;;20.60;50.50;;;;;;6270411;28;20049;-70
2022/05/10 08:15:20;;;;;;;1.75;1.30;;;20.60;50.60;;;;;;6254878;28;20025;-69
2022/05/10 08:18:22;;;;;;;1.88;1.40;;;20.60;50.50;;;;;;6254799;28;20025;-70
2022/05/10 08:21:24;;;;;;;1.92;1.52;;;20.60;50.50;;;;;;6272293;28;20021;-66
2022/05/10 08:24:24;;;;;;;2.42;1.58;;;20.60;50.50;;;;;;6254652;28;20033;-66
2022/05/10 08:27:25;;;;;;;2.35;1.55;;;20.60;50.50;;;;;;6272061;28;20074;-67
2022/05/10 08:30:26;;;;;;;2.25;1.63;;;20.50;50.40;;;;;;6272543;28;20017;-67
2022/05/10 08:33:29;;;;;;;2.53;1.55;;;20.60;50.50;;;;;;6272568;28;20025;-67
2022/05/10 08:36:30;;;;;;;2.38;1.60;;;20.60;50.50;;;;;;6254417;28;20140;-67
2022/05/10 08:39:31;;;;;;;2.33;1.52;;;20.60;50.60;;;;;;6254296;28;20539;-68
2022/05/10 08:42:34;;;;;;;2.22;1.50;;;20.60;50.50;;;;;;6263582;28;20123;-66
2022/05/10 08:45:40;;;;;;;2.33;1.60;;;20.50;50.40;;;;;;6272086;28;20049;-67
2022/05/10 08:48:42;;;;;;;2.67;1.60;;;20.60;50.60;;;;;;6256120;28;20029;-68
2022/05/10 08:51:42;;;;;;;1.65;1.15;;;20.60;50.60;;;;;;6260521;28;20025;-67
2022/05/10 08:54:44;;;;;;;2.22;1.42;;;20.60;50.60;;;;;;6253496;28;20036;-67
2022/05/10 08:58:18;;;;;;;2.60;1.13;;;20.60;50.60;;;;;;6254231;28;20049;-67
2022/05/10 09:01:26;;;;;;;1.67;1.33;;;20.60;50.60;;;;;;6225782;28;20481;-67
2022/05/10 09:04:29;;;;;;;3.25;1.73;;;20.60;50.70;;;;;;6260015;28;20021;-67
2022/05/10 09:07:44;;;;;;;3.35;1.80;;;20.60;50.60;;;;;;6271821;28;20029;-68
2022/05/10 09:10:57;;;;;;;2.08;1.60;;;20.50;50.50;;;;;;6252987;28;20172;-66
2022/05/10 09:13:58;;;;;;;1.65;1.20;;;20.60;50.70;;;;;;6249300;28;20043;-66
2022/05/10 09:16:59;;;;;;;2.13;1.40;;;20.50;50.60;;;;;;6271640;28;20033;-68
2022/05/10 09:20:01;;;;;;;2.20;1.35;;;20.60;50.70;;;;;;6271690;28;20072;-70
2022/05/10 09:23:19;;;;;;;1.45;1.15;;;20.50;50.60;;;;;;6245715;28;20040;-69
2022/05/10 09:26:24;;;;;;;2.78;1.50;;;20.50;50.60;;;;;;6253789;28;20021;-70
2022/05/10 09:29:44;;;;;;;2.03;1.30;;;20.50;50.60;;;;;;6254431;28;20025;-70
2022/05/10 09:36:04;;;;;;;1.30;1.17;;;20.60;50.80;;;;;;6271993;28;20036;-71
2022/05/10 09:39:23;;;;;;;1.33;1.17;;;20.50;50.60;;;;;;6271558;28;20029;-69
2022/05/10 09:42:28;;;;;;;2.08;1.23;;;20.50;50.70;;;;;;6246595;28;20063;-69
2022/05/10 09:45:29;;;;;;;;;;;20.60;50.80;;;;;;6265994;28;20906;-68
2022/05/10 09:48:29;;;;;;;1.25;1.08;;;20.50;50.70;;;;;;6270094;28;20276;-69
2022/05/10 09:51:43;;;;;;;2.10;1.40;;;20.50;50.70;;;;;;6252841;28;20438;-70
2022/05/10 09:54:44;;;;;;;1.50;1.10;;;20.50;50.70;;;;;;6269022;28;20035;-69
2022/05/10 09:57:47;;;;;;;1.95;1.38;;;20.50;50.70;;;;;;6271234;28;20033;-70
2022/05/10 10:00:52;;;;;;;1.38;1.10;;;20.50;50.70;;;;;;6252662;28;20028;-70
2022/05/10 10:03:53;;;;;;;2.10;1.27;;;20.50;50.70;;;;;;6241809;28;20040;-69
2022/05/10 10:07:03;;;;;;;1.77;1.40;;;20.50;50.70;;;;;;6269349;28;20715;-69
2022/05/10 10:10:16;;;;;;;1.30;1.10;;;20.60;50.90;;;;;;6239744;28;20052;-69
2022/05/10 10:13:32;;;;;;;1.70;1.13;;;20.60;51.20;;;;;;6270306;28;20699;-71
2022/05/10 10:16:51;;;;;;;2.22;1.40;;;20.60;50.80;;;;;;6247978;28;20040;-69
2022/05/10 10:20:30;;;;;;;2.67;1.50;;;20.60;50.70;;;;;;6257803;28;20037;-69
2022/05/10 10:23:48;;;;;;;2.38;1.20;;;20.70;50.70;;;;;;6243237;28;20098;-70
2022/05/10 10:27:02;;;;;;;1.40;1.15;;;20.70;50.60;;;;;;6268043;28;20095;-70
2022/05/10 10:30:03;;;;;;;2.30;1.17;;;20.70;50.50;;;;;;6253045;28;20464;-70
2022/05/10 10:33:39;;;;;;;2.35;1.30;;;20.70;50.50;;;;;;6268128;28;20108;-71
2022/05/10 10:36:48;;;;;;;3.77;1.40;;;20.70;50.50;;;;;;6266382;28;20061;-69
2022/05/10 10:40:07;;;;;;;2.83;1.65;;;20.70;50.40;;;;;;6243593;28;20032;-71
2022/05/10 10:43:53;;;;;;;1.80;1.27;;;20.80;50.60;;;;;;6230259;28;20063;-69
2022/05/10 10:47:15;;;;;;;1.58;1.10;;;20.80;50.50;;;;;;6171599;28;20136;-66
2022/05/10 10:50:29;;;;;;;1.73;1.30;;;20.70;50.50;;;;;;6269550;28;20047;-66
2022/05/10 10:53:34;;;;;;;1.80;1.20;;;20.70;50.50;;;;;;6269903;28;20032;-74
2022/05/10 10:56:38;;;;;;;1.70;1.10;;;20.70;50.60;;;;;;6251779;28;20564;-71
2022/05/10 11:00:03;;;;;;;2.25;1.15;;;20.70;50.70;;;;;;6251789;28;20021;-72
2022/05/10 11:03:34;;;;;;;3.90;1.00;;;20.70;50.70;;;;;;6269727;28;20115;-70
2022/05/10 11:06:53;;;;;;;1.55;1.08;;;20.70;50.80;;;;;;6268231;28;20025;-69
2022/05/10 11:10:08;;;;;;;1.52;0.98;;;20.70;50.80;;;;;;6262698;28;20044;-69
2022/05/10 11:13:25;;;;;;;1.38;1.08;;;20.60;50.70;;;;;;6270061;28;20025;-69
2022/05/10 11:16:28;;;;;;;1.20;1.00;;;20.60;50.80;;;;;;6269795;28;20027;-72
2022/05/10 11:19:44;;;;;;;1.40;1.10;;;20.60;50.70;;;;;;6255138;28;20032;-72
2022/05/10 11:23:00;;;;;;;1.85;1.10;;;20.60;50.70;;;;;;6256382;28;20033;-72
2022/05/10 11:26:02;;;;;;;1.63;1.10;;;20.60;50.80;;;;;;6274811;28;20025;-72
2022/05/10 11:29:38;;;;;;;2.22;1.00;;;20.60;50.80;;;;;;6273472;28;20071;-71
2022/05/10 11:32:53;;;;;;;3.42;1.30;;;20.60;50.80;;;;;;6271103;28;20028;-71
2022/05/10 11:36:01;;;;;;;1.30;1.20;;;20.60;50.80;;;;;;6256366;28;20036;-69
2022/05/10 11:39:11;;;;;;;2.15;0.90;;;20.60;50.80;;;;;;6255923;28;20116;-72
2022/05/10 11:42:32;;;;;;;2.20;0.80;;;20.60;50.80;;;;;;6273713;28;20104;-72
2022/05/10 11:46:07;;;;;;;1.45;0.95;;;20.60;50.80;;;;;;6254408;28;20403;-72
2022/05/10 11:49:27;;;;;;;1.45;1.10;;;20.60;50.90;;;;;;6230380;28;20216;-72
2022/05/10 11:53:15;;;;;;;1.05;0.90;;;20.60;50.80;;;;;;6260058;28;20020;-69
2022/05/10 11:56:17;;;;;;;1.20;1.10;;;20.60;50.80;;;;;;6201574;28;20041;-73
2022/05/10 11:59:23;;;;;;;1.73;1.23;;;20.60;50.80;;;;;;6255392;28;20037;-71
2022/05/10 12:02:29;;;;;;;1.92;1.05;;;20.60;50.80;;;;;;6272967;28;20378;-71
2022/05/10 12:05:35;;;;;;;0.82;0.82;;;20.60;50.90;;;;;;6254819;28;20474;-69
2022/05/10 12:08:36;;;;;;;1.33;1.13;;;20.60;50.90;;;;;;6254581;28;20041;-70
2022/05/10 12:11:38;;;;;;;1.30;1.10;;;20.60;50.80;;;;;;6272821;28;20535;-69
2022/05/10 12:21:51;;;;;;;1.60;1.10;;;20.60;51.50;;;;;;6272927;28;20028;-71
2022/05/10 12:24:52;;;;;;;1.23;0.85;;;20.60;50.90;;;;;;6272495;28;20052;-72
2022/05/10 12:28:00;;;;;;;1.40;1.10;;;20.60;50.90;;;;;;6272633;28;20029;-71
2022/05/10 12:31:00;;;;;;;2.20;0.90;;;20.60;50.90;;;;;;6270115;28;20025;-72
2022/05/10 12:34:07;;;;;;;1.42;0.95;;;20.60;50.90;;;;;;6270994;28;20025;-72
2022/05/10 12:37:26;;;;;;;1.23;0.95;;;20.60;50.90;;;;;;6270693;28;20104;-72
2022/05/10 12:40:54;;;;;;;0.90;0.73;;;20.60;50.90;;;;;;6262116;28;20400;-72
2022/05/10 12:44:23;;;;;;;1.02;0.90;;;20.60;50.90;;;;;;6260198;28;20029;-72
2022/05/10 12:47:48;;;;;;;0.85;0.80;;;20.60;50.90;;;;;;6272857;28;20029;-71
2022/05/10 12:51:04;;;;;;;1.10;1.00;;;20.60;50.90;;;;;;6271735;28;20024;-72
2022/05/10 12:54:11;;;;;;;;;;;20.60;50.90;;;;;;6272172;28;20494;-71
2022/05/10 12:57:40;;;;;;;1.10;1.00;;;20.60;51.00;;;;;;6254109;28;20435;-71
2022/05/10 13:00:49;;;;;;;0.90;0.70;;;20.60;50.90;;;;;;6261593;28;20028;-72
2022/05/10 13:03:56;;;;;;;1.40;1.05;;;20.60;51.00;;;;;;6264677;28;20104;-72
2022/05/10 13:07:19;;;;;;;2.10;0.90;;;20.60;51.00;;;;;;6245525;28;20112;-72
2022/05/10 13:10:21;;;;;;;0.98;0.80;;;20.60;51.00;;;;;;6228157;28;20048;-72
2022/05/10 13:13:28;;;;;;;1.58;0.80;;;20.60;51.00;;;;;;6255713;28;20170;-70
2022/05/10 13:16:29;;;;;;;1.23;0.95;;;20.60;51.00;;;;;;6269838;28;20058;-69
2022/05/10 13:19:31;;;;;;;1.52;1.00;;;20.60;51.00;;;;;;6252685;28;20407;-69
2022/05/10 13:22:32;;;;;;;0.80;0.68;;;20.60;51.00;;;;;;6269689;28;20032;-69
2022/05/10 13:25:38;;;;;;;0.77;0.68;;;20.60;51.00;;;;;;6267408;28;20025;-69
2022/05/10 13:28:58;;;;;;;1.42;0.90;;;20.60;51.00;;;;;;6270948;28;20021;-70
2022/05/10 13:31:58;;;;;;;1.35;0.90;;;20.60;51.00;;;;;;6270529;28;20048;-71
2022/05/10 13:35:11;;;;;;;1.23;0.80;;;20.60;51.00;;;;;;6252382;28;20025;-71
2022/05/10 13:38:18;;;;;;;1.30;0.90;;;20.60;51.00;;;;;;6252827;28;20060;-72
2022/05/10 13:41:34;;;;;;;1.30;0.95;;;20.60;51.00;;;;;;6269425;28;20712;-71
2022/05/10 13:44:40;;;;;;;1.30;1.00;;;20.60;51.00;;;;;;6252383;28;20387;-70
2022/05/10 13:47:42;;;;;;;0.80;0.80;;;20.60;51.00;;;;;;6269755;28;20021;-71
2022/05/10 13:50:43;;;;;;;0.77;0.63;;;20.60;51.00;;;;;;6268204;28;20384;-71
2022/05/10 13:53:59;;;;;;;1.13;0.70;;;20.60;51.00;;;;;;6252450;28;20033;-71
2022/05/10 13:57:30;;;;;;;0.90;0.70;;;20.60;51.70;;;;;;6268036;28;20029;-71
2022/05/10 14:00:41;;;;;;;1.00;0.80;;;20.60;51.00;;;;;;6237624;28;20067;-71
2022/05/10 14:03:41;;;;;;;2.08;0.95;;;20.60;51.00;;;;;;6241956;28;20528;-72
2022/05/10 14:06:48;;;;;;;0.80;0.60;;;20.50;51.00;;;;;;6243295;28;20021;-72
2022/05/10 14:09:50;;;;;;;0.60;0.60;;;20.60;51.10;;;;;;6243865;28;20650;-72
2022/05/10 14:12:57;;;;;;;0.90;0.60;;;20.60;51.10;;;;;;6266772;28;20033;-72
2022/05/10 14:15:59;;;;;;;1.50;0.80;;;20.50;51.00;;;;;;6249832;28;20083;-70
2022/05/10 14:19:02;;;;;;;0.90;0.80;;;20.60;51.10;;;;;;6249798;28;20427;-72
2022/05/10 14:22:10;;;;;;;1.35;0.82;;;20.60;51.10;;;;;;6268177;28;20033;-72
2022/05/10 14:25:11;;;;;;;1.15;0.65;;;20.60;51.10;;;;;;6267709;28;20396;-71
2022/05/10 14:28:33;;;;;;;0.75;0.73;;;20.60;51.10;;;;;;6249629;28;20082;-72
2022/05/10 14:31:37;;;;;;;1.00;0.80;;;20.60;51.10;;;;;;6267248;28;20071;-71
2022/05/10 14:34:58;;;;;;;1.33;0.93;;;20.60;51.10;;;;;;6267563;28;20116;-69
2022/05/10 14:38:11;;;;;;;1.73;0.70;;;20.60;51.10;;;;;;6267685;28;20056;-71
2022/05/10 14:41:27;;;;;;;0.80;0.68;;;20.60;51.10;;;;;;6266740;28;20765;-71
2022/05/10 14:44:42;;;;;;;0.65;0.60;;;20.60;51.10;;;;;;6267842;28;20029;-69
2022/05/10 14:47:43;;;;;;;0.70;0.60;;;20.50;51.00;;;;;;6267617;28;20025;-71
2022/05/10 14:50:45;;;;;;;0.82;0.70;;;20.60;51.10;;;;;;6248978;28;20025;-70
2022/05/10 14:53:54;;;;;;;2.42;0.93;;;20.60;51.10;;;;;;6249109;28;20526;-70
2022/05/10 14:56:58;;;;;;;1.23;0.80;;;20.60;51.10;;;;;;6265928;28;20118;-71
2022/05/10 15:00:14;;;;;;;1.13;0.80;;;20.60;51.20;;;;;;6267273;28;20029;-70
2022/05/10 15:03:15;;;;;;;4.22;0.70;;;20.60;51.10;;;;;;6238454;28;20056;-69
2022/05/10 15:06:16;;;;;;;0.60;0.60;;;20.60;51.10;;;;;;6241096;28;20033;-70
2022/05/10 15:09:17;;;;;;;1.35;0.70;;;20.50;51.10;;;;;;6240913;28;20053;-70
2022/05/10 15:15:51;;;;;;;0.75;0.73;;;20.60;51.10;;;;;;6267487;28;20480;-71
2022/05/10 15:18:58;;;;;;;0.60;0.52;;;20.60;51.20;;;;;;6249541;28;20132;-71
2022/05/10 15:21:59;;;;;;;2.20;0.80;;;20.60;51.20;;;;;;6248325;28;20048;-71
2022/05/10 15:24:59;;;;;;;0.73;0.60;;;20.60;51.10;;;;;;6255605;28;20022;-71
2022/05/10 15:28:02;;;;;;;0.93;0.80;;;20.50;51.10;;;;;;6224504;28;20687;-70
2022/05/10 15:31:02;;;;;;;1.27;0.80;;;20.50;51.10;;;;;;6241574;28;20071;-71
2022/05/10 15:34:42;;;;;;;0.80;0.80;;;20.50;51.10;;;;;;6242930;28;20025;-71
2022/05/10 15:37:25;;;;;;;0.80;0.70;;;20.60;51.20;;;;;;6241851;28;20028;-71
2022/05/10 15:40:27;;;;;;;1.20;0.80;;;20.60;51.20;;;;;;6241847;28;20539;-71
2022/05/10 15:43:28;;;;;;;0.90;0.70;;;20.50;51.10;;;;;;6224066;28;20029;-71
2022/05/10 15:46:29;;;;;;;1.27;0.90;;;20.60;51.20;;;;;;6224004;28;20087;-71
2022/05/10 15:49:29;;;;;;;0.63;0.60;;;20.60;51.20;;;;;;6224379;28;20017;-71
2022/05/10 15:52:30;;;;;;;0.70;0.68;;;20.50;51.10;;;;;;6251910;28;20063;-71
2022/05/10 15:55:32;;;;;;;0.90;0.77;;;20.60;51.20;;;;;;6266522;28;20029;-71
2022/05/10 15:58:33;;;;;;;0.98;0.70;;;20.50;51.10;;;;;;6266967;28;20063;-69
2022/05/10 16:01:35;;;;;;;1.38;0.95;;;20.60;51.20;;;;;;6248154;28;20032;-71
2022/05/10 16:04:36;;;;;;;0.68;0.60;;;20.60;51.20;;;;;;6242193;28;20021;-70
2022/05/10 16:07:36;;;;;;;1.95;0.82;;;20.60;51.20;;;;;;6245665;28;20104;-69
2022/05/10 16:10:39;;;;;;;0.88;0.75;;;20.50;51.20;;;;;;6253283;28;20484;-70
2022/05/10 16:13:39;;;;;;;0.77;0.70;;;20.60;51.20;;;;;;6270783;28;20108;-71
2022/05/10 16:16:42;;;;;;;0.70;0.70;;;20.50;51.20;;;;;;6250777;28;20070;-70
2022/05/10 16:19:42;;;;;;;0.70;0.70;;;20.50;51.10;;;;;;6268285;28;20028;-72
2022/05/10 16:22:43;;;;;;;0.70;0.50;;;20.50;51.20;;;;;;6267278;28;20597;-72
2022/05/10 16:25:44;;;;;;;0.73;0.70;;;20.50;51.10;;;;;;6250496;28;20028;-71
2022/05/10 16:32:07;;;;;;;0.60;0.55;;;20.60;51.20;;;;;;6268047;28;20025;-70
2022/05/10 16:35:10;;;;;;;0.73;0.60;;;20.50;51.20;;;;;;6267956;28;20047;-71
2022/05/10 16:38:10;;;;;;;1.00;0.60;;;20.50;51.10;;;;;;6250186;28;20029;-71